sensor_id;sensor_type;location;lat;lon;timestamp;P1;durP1;ratioP1;P2;durP2;ratioP2
12689;SDS011;6409;56.294;14.480;2023-02-11T00:01:24;7.43;;;1.37;;
12689;SDS011;6409;56.294;14.480;2023-02-11T00:03:53;3.80;;;2.13;;
12689;SDS011;6409;56.294;14.480;2023-02-11T00:06:22;2.10;;;1.90;;
12689;SDS011;6409;56.294;14.480;2023-02-11T00:08:50;1.10;;;1.10;;
12689;SDS011;6409;56.294;14.480;2023-02-11T00:11:19;1.07;;;0.93;;
12689;SDS011;6409;56.294;14.480;2023-02-11T00:13:51;1.03;;;0.97;;
12689;SDS011;6409;56.294;14.480;2023-02-11T00:16:19;1.67;;;0.97;;
12689;SDS011;6409;56.294;14.480;2023-02-11T00:18:48;1.30;;;0.97;;
12689;SDS011;6409;56.294;14.480;2023-02-11T00:21:17;0.90;;;0.90;;
12689;SDS011;6409;56.294;14.480;2023-02-11T00:23:46;1.27;;;1.00;;
12689;SDS011;6409;56.294;14.480;2023-02-11T00:26:15;2.17;;;1.43;;
12689;SDS011;6409;56.294;14.480;2023-02-11T00:28:45;0.53;;;0.53;;
12689;SDS011;6409;56.294;14.480;2023-02-11T00:31:16;0.77;;;0.70;;
12689;SDS011;6409;56.294;14.480;2023-02-11T00:33:45;1.03;;;0.93;;
12689;SDS011;6409;56.294;14.480;2023-02-11T00:36:13;5.20;;;1.00;;
12689;SDS011;6409;56.294;14.480;2023-02-11T00:38:41;1.00;;;0.90;;
12689;SDS011;6409;56.294;14.480;2023-02-11T00:41:08;4.10;;;1.33;;
12689;SDS011;6409;56.294;14.480;2023-02-11T00:43:36;6.13;;;1.53;;
12689;SDS011;6409;56.294;14.480;2023-02-11T00:46:03;4.57;;;0.90;;
12689;SDS011;6409;56.294;14.480;2023-02-11T00:48:31;1.50;;;1.00;;
12689;SDS011;6409;56.294;14.480;2023-02-11T00:50:59;0.73;;;0.73;;
12689;SDS011;6409;56.294;14.480;2023-02-11T00:53:26;1.23;;;0.50;;
12689;SDS011;6409;56.294;14.480;2023-02-11T00:55:53;1.13;;;0.60;;
12689;SDS011;6409;56.294;14.480;2023-02-11T00:58:20;0.67;;;0.67;;
12689;SDS011;6409;56.294;14.480;2023-02-11T01:00:47;3.03;;;0.93;;
12689;SDS011;6409;56.294;14.480;2023-02-11T01:03:14;0.50;;;0.50;;
12689;SDS011;6409;56.294;14.480;2023-02-11T01:05:42;0.30;;;0.30;;
12689;SDS011;6409;56.294;14.480;2023-02-11T01:08:09;0.80;;;0.80;;
12689;SDS011;6409;56.294;14.480;2023-02-11T01:10:36;0.37;;;0.37;;
12689;SDS011;6409;56.294;14.480;2023-02-11T01:13:03;0.67;;;0.67;;
12689;SDS011;6409;56.294;14.480;2023-02-11T01:15:31;0.80;;;0.50;;
12689;SDS011;6409;56.294;14.480;2023-02-11T01:17:58;0.50;;;0.50;;
12689;SDS011;6409;56.294;14.480;2023-02-11T01:20:25;0.73;;;0.47;;
12689;SDS011;6409;56.294;14.480;2023-02-11T01:22:54;0.50;;;0.50;;
12689;SDS011;6409;56.294;14.480;2023-02-11T01:25:21;0.90;;;0.63;;
12689;SDS011;6409;56.294;14.480;2023-02-11T01:27:48;0.50;;;0.50;;
12689;SDS011;6409;56.294;14.480;2023-02-11T01:30:15;0.40;;;0.40;;
12689;SDS011;6409;56.294;14.480;2023-02-11T01:32:42;0.60;;;0.50;;
12689;SDS011;6409;56.294;14.480;2023-02-11T01:35:09;0.50;;;0.50;;
12689;SDS011;6409;56.294;14.480;2023-02-11T01:37:36;0.30;;;0.30;;
12689;SDS011;6409;56.294;14.480;2023-02-11T01:40:05;0.43;;;0.43;;
12689;SDS011;6409;56.294;14.480;2023-02-11T01:42:37;0.30;;;0.30;;
12689;SDS011;6409;56.294;14.480;2023-02-11T01:48:07;2.43;;;0.70;;
12689;SDS011;6409;56.294;14.480;2023-02-11T01:50:35;0.67;;;0.33;;
12689;SDS011;6409;56.294;14.480;2023-02-11T01:53:03;0.40;;;0.30;;
12689;SDS011;6409;56.294;14.480;2023-02-11T01:55:45;0.50;;;0.50;;
12689;SDS011;6409;56.294;14.480;2023-02-11T01:58:30;0.50;;;0.50;;
12689;SDS011;6409;56.294;14.480;2023-02-11T02:00:58;0.73;;;0.37;;
12689;SDS011;6409;56.294;14.480;2023-02-11T02:03:27;0.27;;;0.27;;
12689;SDS011;6409;56.294;14.480;2023-02-11T02:05:56;1.03;;;0.40;;
12689;SDS011;6409;56.294;14.480;2023-02-11T02:08:26;1.00;;;0.70;;
12689;SDS011;6409;56.294;14.480;2023-02-11T02:10:57;0.33;;;0.33;;
12689;SDS011;6409;56.294;14.480;2023-02-11T02:13:25;0.30;;;0.30;;
12689;SDS011;6409;56.294;14.480;2023-02-11T02:15:53;1.47;;;0.40;;
12689;SDS011;6409;56.294;14.480;2023-02-11T02:18:25;0.30;;;0.30;;
12689;SDS011;6409;56.294;14.480;2023-02-11T02:21:28;0.20;;;0.20;;
12689;SDS011;6409;56.294;14.480;2023-02-11T02:24:26;0.30;;;0.30;;
12689;SDS011;6409;56.294;14.480;2023-02-11T02:27:17;1.53;;;0.30;;
12689;SDS011;6409;56.294;14.480;2023-02-11T02:29:56;0.80;;;0.50;;
12689;SDS011;6409;56.294;14.480;2023-02-11T02:32:42;1.83;;;0.50;;
12689;SDS011;6409;56.294;14.480;2023-02-11T02:35:18;0.73;;;0.73;;
12689;SDS011;6409;56.294;14.480;2023-02-11T02:37:54;1.50;;;0.50;;
12689;SDS011;6409;56.294;14.480;2023-02-11T02:40:24;0.30;;;0.30;;
12689;SDS011;6409;56.294;14.480;2023-02-11T02:42:55;0.30;;;0.30;;
12689;SDS011;6409;56.294;14.480;2023-02-11T02:45:22;0.50;;;0.50;;
12689;SDS011;6409;56.294;14.480;2023-02-11T02:47:50;0.23;;;0.23;;
12689;SDS011;6409;56.294;14.480;2023-02-11T02:50:18;3.00;;;0.37;;
12689;SDS011;6409;56.294;14.480;2023-02-11T02:52:51;0.40;;;0.40;;
12689;SDS011;6409;56.294;14.480;2023-02-11T02:55:29;0.50;;;0.50;;
12689;SDS011;6409;56.294;14.480;2023-02-11T03:01:22;0.33;;;0.33;;
12689;SDS011;6409;56.294;14.480;2023-02-11T03:03:58;0.20;;;0.20;;
12689;SDS011;6409;56.294;14.480;2023-02-11T03:06:29;0.30;;;0.30;;
12689;SDS011;6409;56.294;14.480;2023-02-11T03:08:59;3.00;;;0.60;;
12689;SDS011;6409;56.294;14.480;2023-02-11T03:11:29;0.33;;;0.33;;
12689;SDS011;6409;56.294;14.480;2023-02-11T03:13:57;0.40;;;0.40;;
12689;SDS011;6409;56.294;14.480;2023-02-11T03:16:26;5.33;;;1.03;;
12689;SDS011;6409;56.294;14.480;2023-02-11T03:18:56;2.53;;;0.90;;
12689;SDS011;6409;56.294;14.480;2023-02-11T03:21:24;0.83;;;0.67;;
12689;SDS011;6409;56.294;14.480;2023-02-11T03:23:52;0.40;;;0.40;;
12689;SDS011;6409;56.294;14.480;2023-02-11T03:26:22;2.80;;;0.90;;
12689;SDS011;6409;56.294;14.480;2023-02-11T03:28:53;2.07;;;1.00;;
12689;SDS011;6409;56.294;14.480;2023-02-11T03:31:26;3.07;;;0.57;;
12689;SDS011;6409;56.294;14.480;2023-02-11T03:33:57;0.53;;;0.53;;
12689;SDS011;6409;56.294;14.480;2023-02-11T03:36:27;1.60;;;1.00;;
12689;SDS011;6409;56.294;14.480;2023-02-11T03:38:58;1.47;;;0.93;;
12689;SDS011;6409;56.294;14.480;2023-02-11T03:41:25;3.93;;;1.17;;
12689;SDS011;6409;56.294;14.480;2023-02-11T03:43:53;7.77;;;0.77;;
12689;SDS011;6409;56.294;14.480;2023-02-11T03:46:23;6.80;;;1.27;;
12689;SDS011;6409;56.294;14.480;2023-02-11T03:48:54;5.73;;;0.90;;
12689;SDS011;6409;56.294;14.480;2023-02-11T03:51:24;6.50;;;1.23;;
12689;SDS011;6409;56.294;14.480;2023-02-11T03:53:52;4.17;;;1.00;;
12689;SDS011;6409;56.294;14.480;2023-02-11T03:56:20;0.50;;;0.50;;
12689;SDS011;6409;56.294;14.480;2023-02-11T03:58:49;6.00;;;0.80;;
12689;SDS011;6409;56.294;14.480;2023-02-11T04:01:16;5.63;;;0.90;;
12689;SDS011;6409;56.294;14.480;2023-02-11T04:03:43;4.43;;;0.63;;
12689;SDS011;6409;56.294;14.480;2023-02-11T04:06:11;1.23;;;1.23;;
12689;SDS011;6409;56.294;14.480;2023-02-11T04:08:38;0.43;;;0.40;;
12689;SDS011;6409;56.294;14.480;2023-02-11T04:11:05;0.20;;;0.20;;
12689;SDS011;6409;56.294;14.480;2023-02-11T04:13:32;0.73;;;0.60;;
12689;SDS011;6409;56.294;14.480;2023-02-11T04:15:59;0.50;;;0.50;;
12689;SDS011;6409;56.294;14.480;2023-02-11T04:18:26;4.53;;;1.33;;
12689;SDS011;6409;56.294;14.480;2023-02-11T04:20:54;1.23;;;0.50;;
12689;SDS011;6409;56.294;14.480;2023-02-11T04:23:22;1.50;;;0.57;;
12689;SDS011;6409;56.294;14.480;2023-02-11T04:25:49;0.33;;;0.33;;
12689;SDS011;6409;56.294;14.480;2023-02-11T04:28:16;0.40;;;0.40;;
12689;SDS011;6409;56.294;14.480;2023-02-11T04:30:43;0.77;;;0.30;;
12689;SDS011;6409;56.294;14.480;2023-02-11T04:33:10;3.40;;;0.70;;
12689;SDS011;6409;56.294;14.480;2023-02-11T04:35:37;4.63;;;0.70;;
12689;SDS011;6409;56.294;14.480;2023-02-11T04:38:04;0.40;;;0.40;;
12689;SDS011;6409;56.294;14.480;2023-02-11T04:40:32;2.83;;;0.70;;
12689;SDS011;6409;56.294;14.480;2023-02-11T04:42:59;1.40;;;0.70;;
12689;SDS011;6409;56.294;14.480;2023-02-11T04:45:26;1.67;;;0.80;;
12689;SDS011;6409;56.294;14.480;2023-02-11T04:47:53;7.63;;;0.80;;
12689;SDS011;6409;56.294;14.480;2023-02-11T04:50:20;0.50;;;0.50;;
12689;SDS011;6409;56.294;14.480;2023-02-11T04:52:47;0.37;;;0.37;;
12689;SDS011;6409;56.294;14.480;2023-02-11T04:55:14;4.13;;;0.70;;
12689;SDS011;6409;56.294;14.480;2023-02-11T04:57:42;0.30;;;0.30;;
12689;SDS011;6409;56.294;14.480;2023-02-11T05:00:09;3.60;;;1.00;;
12689;SDS011;6409;56.294;14.480;2023-02-11T05:02:37;1.37;;;0.60;;
12689;SDS011;6409;56.294;14.480;2023-02-11T05:05:04;0.33;;;0.33;;
12689;SDS011;6409;56.294;14.480;2023-02-11T05:07:31;0.47;;;0.47;;
12689;SDS011;6409;56.294;14.480;2023-02-11T05:09:58;0.37;;;0.37;;
12689;SDS011;6409;56.294;14.480;2023-02-11T05:12:25;2.73;;;0.43;;
12689;SDS011;6409;56.294;14.480;2023-02-11T05:14:53;1.63;;;0.50;;
12689;SDS011;6409;56.294;14.480;2023-02-11T05:17:20;0.30;;;0.30;;
12689;SDS011;6409;56.294;14.480;2023-02-11T05:19:47;0.50;;;0.50;;
12689;SDS011;6409;56.294;14.480;2023-02-11T05:22:14;0.43;;;0.43;;
12689;SDS011;6409;56.294;14.480;2023-02-11T05:24:41;1.07;;;0.60;;
12689;SDS011;6409;56.294;14.480;2023-02-11T05:27:07;0.87;;;0.50;;
12689;SDS011;6409;56.294;14.480;2023-02-11T05:29:34;0.60;;;0.50;;
12689;SDS011;6409;56.294;14.480;2023-02-11T05:32:03;3.60;;;0.50;;
12689;SDS011;6409;56.294;14.480;2023-02-11T05:34:31;0.73;;;0.63;;
12689;SDS011;6409;56.294;14.480;2023-02-11T05:36:58;3.40;;;0.80;;
12689;SDS011;6409;56.294;14.480;2023-02-11T05:39:25;0.40;;;0.40;;
12689;SDS011;6409;56.294;14.480;2023-02-11T05:41:52;1.90;;;0.60;;
12689;SDS011;6409;56.294;14.480;2023-02-11T05:44:18;0.30;;;0.30;;
12689;SDS011;6409;56.294;14.480;2023-02-11T05:46:45;0.77;;;0.60;;
12689;SDS011;6409;56.294;14.480;2023-02-11T05:49:14;0.20;;;0.20;;
12689;SDS011;6409;56.294;14.480;2023-02-11T05:51:41;4.50;;;0.60;;
12689;SDS011;6409;56.294;14.480;2023-02-11T05:54:08;4.90;;;0.30;;
12689;SDS011;6409;56.294;14.480;2023-02-11T05:56:35;2.90;;;1.00;;
12689;SDS011;6409;56.294;14.480;2023-02-11T05:59:02;1.93;;;0.67;;
12689;SDS011;6409;56.294;14.480;2023-02-11T06:01:29;0.97;;;0.60;;
12689;SDS011;6409;56.294;14.480;2023-02-11T06:03:56;1.03;;;0.80;;
12689;SDS011;6409;56.294;14.480;2023-02-11T06:06:24;3.03;;;0.90;;
12689;SDS011;6409;56.294;14.480;2023-02-11T06:08:51;0.40;;;0.40;;
12689;SDS011;6409;56.294;14.480;2023-02-11T06:11:18;3.60;;;1.00;;
12689;SDS011;6409;56.294;14.480;2023-02-11T06:13:45;1.67;;;1.20;;
12689;SDS011;6409;56.294;14.480;2023-02-11T06:16:12;3.50;;;1.03;;
12689;SDS011;6409;56.294;14.480;2023-02-11T06:18:39;6.57;;;1.37;;
12689;SDS011;6409;56.294;14.480;2023-02-11T06:21:06;3.90;;;0.80;;
12689;SDS011;6409;56.294;14.480;2023-02-11T06:23:35;1.37;;;1.27;;
12689;SDS011;6409;56.294;14.480;2023-02-11T06:26:03;5.20;;;0.77;;
12689;SDS011;6409;56.294;14.480;2023-02-11T06:28:31;3.20;;;1.27;;
12689;SDS011;6409;56.294;14.480;2023-02-11T06:31:03;9.70;;;1.37;;
12689;SDS011;6409;56.294;14.480;2023-02-11T06:33:30;2.07;;;1.20;;
12689;SDS011;6409;56.294;14.480;2023-02-11T06:35:57;1.80;;;0.50;;
12689;SDS011;6409;56.294;14.480;2023-02-11T06:38:24;3.40;;;0.77;;
12689;SDS011;6409;56.294;14.480;2023-02-11T06:40:52;11.57;;;1.93;;
12689;SDS011;6409;56.294;14.480;2023-02-11T06:43:19;4.83;;;1.27;;
12689;SDS011;6409;56.294;14.480;2023-02-11T06:45:51;1.07;;;0.83;;
12689;SDS011;6409;56.294;14.480;2023-02-11T06:48:18;2.17;;;1.17;;
12689;SDS011;6409;56.294;14.480;2023-02-11T06:50:45;4.07;;;1.37;;
12689;SDS011;6409;56.294;14.480;2023-02-11T06:53:12;1.23;;;0.90;;
12689;SDS011;6409;56.294;14.480;2023-02-11T06:55:39;2.07;;;1.03;;
12689;SDS011;6409;56.294;14.480;2023-02-11T06:58:07;1.63;;;0.97;;
12689;SDS011;6409;56.294;14.480;2023-02-11T07:00:35;4.17;;;1.60;;
12689;SDS011;6409;56.294;14.480;2023-02-11T07:03:02;4.93;;;1.50;;
12689;SDS011;6409;56.294;14.480;2023-02-11T07:05:29;8.50;;;1.10;;
12689;SDS011;6409;56.294;14.480;2023-02-11T07:07:58;8.43;;;1.43;;
12689;SDS011;6409;56.294;14.480;2023-02-11T07:10:25;4.13;;;1.03;;
12689;SDS011;6409;56.294;14.480;2023-02-11T07:12:52;1.27;;;1.00;;
12689;SDS011;6409;56.294;14.480;2023-02-11T07:15:20;4.50;;;2.63;;
12689;SDS011;6409;56.294;14.480;2023-02-11T07:17:47;11.20;;;1.97;;
12689;SDS011;6409;56.294;14.480;2023-02-11T07:20:14;4.30;;;1.77;;
12689;SDS011;6409;56.294;14.480;2023-02-11T07:22:41;5.83;;;1.67;;
12689;SDS011;6409;56.294;14.480;2023-02-11T07:25:09;7.50;;;0.97;;
12689;SDS011;6409;56.294;14.480;2023-02-11T07:27:36;3.07;;;1.07;;
12689;SDS011;6409;56.294;14.480;2023-02-11T07:30:03;7.73;;;1.37;;
12689;SDS011;6409;56.294;14.480;2023-02-11T07:32:32;6.73;;;1.40;;
12689;SDS011;6409;56.294;14.480;2023-02-11T07:34:59;4.90;;;1.50;;
12689;SDS011;6409;56.294;14.480;2023-02-11T07:37:26;13.70;;;1.90;;
12689;SDS011;6409;56.294;14.480;2023-02-11T07:39:53;6.07;;;2.43;;
12689;SDS011;6409;56.294;14.480;2023-02-11T07:42:20;4.30;;;1.50;;
12689;SDS011;6409;56.294;14.480;2023-02-11T07:44:46;2.90;;;1.17;;
12689;SDS011;6409;56.294;14.480;2023-02-11T07:47:14;4.17;;;1.30;;
12689;SDS011;6409;56.294;14.480;2023-02-11T07:49:42;0.80;;;0.80;;
12689;SDS011;6409;56.294;14.480;2023-02-11T07:52:09;5.50;;;1.40;;
12689;SDS011;6409;56.294;14.480;2023-02-11T07:54:36;9.53;;;2.13;;
12689;SDS011;6409;56.294;14.480;2023-02-11T07:57:03;2.77;;;1.33;;
12689;SDS011;6409;56.294;14.480;2023-02-11T07:59:30;3.23;;;1.10;;
12689;SDS011;6409;56.294;14.480;2023-02-11T08:01:56;6.70;;;1.30;;
12689;SDS011;6409;56.294;14.480;2023-02-11T08:04:23;7.27;;;1.67;;
12689;SDS011;6409;56.294;14.480;2023-02-11T08:06:52;8.10;;;2.07;;
12689;SDS011;6409;56.294;14.480;2023-02-11T08:09:21;6.70;;;2.37;;
12689;SDS011;6409;56.294;14.480;2023-02-11T08:11:48;4.47;;;1.27;;
12689;SDS011;6409;56.294;14.480;2023-02-11T08:14:15;2.07;;;1.20;;
12689;SDS011;6409;56.294;14.480;2023-02-11T08:16:42;3.57;;;1.10;;
12689;SDS011;6409;56.294;14.480;2023-02-11T08:19:09;3.60;;;1.20;;
12689;SDS011;6409;56.294;14.480;2023-02-11T08:21:38;12.80;;;1.83;;
12689;SDS011;6409;56.294;14.480;2023-02-11T08:24:07;19.07;;;1.73;;
12689;SDS011;6409;56.294;14.480;2023-02-11T08:26:34;6.57;;;1.93;;
12689;SDS011;6409;56.294;14.480;2023-02-11T08:29:02;4.97;;;1.90;;
12689;SDS011;6409;56.294;14.480;2023-02-11T08:31:33;2.63;;;1.30;;
12689;SDS011;6409;56.294;14.480;2023-02-11T08:34:01;6.10;;;1.87;;
12689;SDS011;6409;56.294;14.480;2023-02-11T08:36:29;11.83;;;2.00;;
12689;SDS011;6409;56.294;14.480;2023-02-11T08:38:58;10.03;;;2.23;;
12689;SDS011;6409;56.294;14.480;2023-02-11T08:41:28;5.73;;;1.47;;
12689;SDS011;6409;56.294;14.480;2023-02-11T08:43:55;3.33;;;2.00;;
12689;SDS011;6409;56.294;14.480;2023-02-11T08:46:23;19.63;;;2.23;;
12689;SDS011;6409;56.294;14.480;2023-02-11T08:48:50;8.53;;;1.77;;
12689;SDS011;6409;56.294;14.480;2023-02-11T08:51:17;2.47;;;1.47;;
12689;SDS011;6409;56.294;14.480;2023-02-11T08:53:45;2.70;;;1.60;;
12689;SDS011;6409;56.294;14.480;2023-02-11T08:56:13;2.87;;;1.00;;
12689;SDS011;6409;56.294;14.480;2023-02-11T08:58:43;10.97;;;1.93;;
12689;SDS011;6409;56.294;14.480;2023-02-11T09:01:10;7.20;;;2.60;;
12689;SDS011;6409;56.294;14.480;2023-02-11T09:03:37;4.87;;;2.40;;
12689;SDS011;6409;56.294;14.480;2023-02-11T09:06:04;9.30;;;1.83;;
12689;SDS011;6409;56.294;14.480;2023-02-11T09:08:32;4.37;;;1.37;;
12689;SDS011;6409;56.294;14.480;2023-02-11T09:11:00;5.87;;;2.23;;
12689;SDS011;6409;56.294;14.480;2023-02-11T09:13:27;10.23;;;2.13;;
12689;SDS011;6409;56.294;14.480;2023-02-11T09:15:56;8.03;;;2.20;;
12689;SDS011;6409;56.294;14.480;2023-02-11T09:18:23;5.90;;;1.50;;
12689;SDS011;6409;56.294;14.480;2023-02-11T09:20:51;7.00;;;1.83;;
12689;SDS011;6409;56.294;14.480;2023-02-11T09:23:17;7.37;;;2.53;;
12689;SDS011;6409;56.294;14.480;2023-02-11T09:25:44;16.07;;;3.33;;
12689;SDS011;6409;56.294;14.480;2023-02-11T09:28:11;5.77;;;1.63;;
12689;SDS011;6409;56.294;14.480;2023-02-11T09:30:38;6.70;;;2.73;;
12689;SDS011;6409;56.294;14.480;2023-02-11T09:33:06;7.07;;;3.27;;
12689;SDS011;6409;56.294;14.480;2023-02-11T09:35:33;6.17;;;3.17;;
12689;SDS011;6409;56.294;14.480;2023-02-11T09:38:00;8.27;;;3.30;;
12689;SDS011;6409;56.294;14.480;2023-02-11T09:40:27;7.37;;;3.50;;
12689;SDS011;6409;56.294;14.480;2023-02-11T09:42:56;6.13;;;3.00;;
12689;SDS011;6409;56.294;14.480;2023-02-11T09:45:28;4.07;;;2.93;;
12689;SDS011;6409;56.294;14.480;2023-02-11T09:47:56;7.23;;;2.80;;
12689;SDS011;6409;56.294;14.480;2023-02-11T09:50:29;11.00;;;3.40;;
12689;SDS011;6409;56.294;14.480;2023-02-11T09:52:59;5.93;;;3.00;;
12689;SDS011;6409;56.294;14.480;2023-02-11T09:55:28;7.27;;;3.17;;
12689;SDS011;6409;56.294;14.480;2023-02-11T09:57:59;8.27;;;3.67;;
12689;SDS011;6409;56.294;14.480;2023-02-11T10:00:30;8.83;;;3.70;;
12689;SDS011;6409;56.294;14.480;2023-02-11T10:03:08;9.73;;;3.77;;
12689;SDS011;6409;56.294;14.480;2023-02-11T10:09:01;14.33;;;3.90;;
12689;SDS011;6409;56.294;14.480;2023-02-11T10:11:34;4.87;;;3.17;;
12689;SDS011;6409;56.294;14.480;2023-02-11T10:14:08;6.83;;;3.93;;
12689;SDS011;6409;56.294;14.480;2023-02-11T10:16:50;7.67;;;4.20;;
12689;SDS011;6409;56.294;14.480;2023-02-11T10:19:26;8.63;;;5.20;;
12689;SDS011;6409;56.294;14.480;2023-02-11T10:22:01;4.73;;;4.33;;
12689;SDS011;6409;56.294;14.480;2023-02-11T10:24:32;7.87;;;4.77;;
12689;SDS011;6409;56.294;14.480;2023-02-11T10:27:00;20.20;;;5.47;;
12689;SDS011;6409;56.294;14.480;2023-02-11T10:29:32;8.07;;;4.97;;
12689;SDS011;6409;56.294;14.480;2023-02-11T10:32:03;6.70;;;5.60;;
12689;SDS011;6409;56.294;14.480;2023-02-11T10:34:32;8.00;;;5.37;;
12689;SDS011;6409;56.294;14.480;2023-02-11T10:37:00;7.10;;;5.17;;
12689;SDS011;6409;56.294;14.480;2023-02-11T10:39:27;11.83;;;5.40;;
12689;SDS011;6409;56.294;14.480;2023-02-11T10:41:56;7.40;;;5.43;;
12689;SDS011;6409;56.294;14.480;2023-02-11T10:44:26;8.03;;;5.43;;
12689;SDS011;6409;56.294;14.480;2023-02-11T10:46:55;7.93;;;5.53;;
12689;SDS011;6409;56.294;14.480;2023-02-11T10:49:32;13.53;;;6.20;;
12689;SDS011;6409;56.294;14.480;2023-02-11T10:54:57;6.53;;;5.70;;
12689;SDS011;6409;56.294;14.480;2023-02-11T10:57:26;8.97;;;5.73;;
12689;SDS011;6409;56.294;14.480;2023-02-11T10:59:56;6.60;;;5.30;;
12689;SDS011;6409;56.294;14.480;2023-02-11T11:02:26;8.00;;;5.47;;
12689;SDS011;6409;56.294;14.480;2023-02-11T11:04:56;8.13;;;5.70;;
12689;SDS011;6409;56.294;14.480;2023-02-11T11:07:24;16.20;;;5.83;;
12689;SDS011;6409;56.294;14.480;2023-02-11T11:09:55;10.63;;;6.53;;
12689;SDS011;6409;56.294;14.480;2023-02-11T11:12:34;6.37;;;5.77;;
12689;SDS011;6409;56.294;14.480;2023-02-11T11:15:14;7.37;;;6.23;;
12689;SDS011;6409;56.294;14.480;2023-02-11T11:17:44;10.30;;;6.27;;
12689;SDS011;6409;56.294;14.480;2023-02-11T11:20:18;7.53;;;6.70;;
12689;SDS011;6409;56.294;14.480;2023-02-11T11:22:51;8.47;;;6.20;;
12689;SDS011;6409;56.294;14.480;2023-02-11T11:25:33;7.23;;;6.50;;
12689;SDS011;6409;56.294;14.480;2023-02-11T11:28:04;9.43;;;6.10;;
12689;SDS011;6409;56.294;14.480;2023-02-11T11:30:32;5.93;;;5.53;;
12689;SDS011;6409;56.294;14.480;2023-02-11T11:33:04;10.00;;;6.73;;
12689;SDS011;6409;56.294;14.480;2023-02-11T11:35:51;5.60;;;5.10;;
12689;SDS011;6409;56.294;14.480;2023-02-11T11:38:23;9.03;;;5.70;;
12689;SDS011;6409;56.294;14.480;2023-02-11T11:43:58;8.20;;;6.23;;
12689;SDS011;6409;56.294;14.480;2023-02-11T11:46:29;7.10;;;6.50;;
12689;SDS011;6409;56.294;14.480;2023-02-11T11:49:00;6.50;;;5.93;;
12689;SDS011;6409;56.294;14.480;2023-02-11T11:51:32;5.90;;;5.50;;
12689;SDS011;6409;56.294;14.480;2023-02-11T11:53:59;10.03;;;6.17;;
12689;SDS011;6409;56.294;14.480;2023-02-11T11:56:31;5.80;;;5.30;;
12689;SDS011;6409;56.294;14.480;2023-02-11T11:59:00;5.63;;;5.13;;
12689;SDS011;6409;56.294;14.480;2023-02-11T12:01:31;6.10;;;5.60;;
12689;SDS011;6409;56.294;14.480;2023-02-11T12:04:26;10.17;;;6.13;;
12689;SDS011;6409;56.294;14.480;2023-02-11T12:07:13;6.33;;;5.80;;
12689;SDS011;6409;56.294;14.480;2023-02-11T12:09:49;5.67;;;5.37;;
12689;SDS011;6409;56.294;14.480;2023-02-11T12:12:29;7.43;;;5.60;;
12689;SDS011;6409;56.294;14.480;2023-02-11T12:15:05;6.27;;;5.63;;
12689;SDS011;6409;56.294;14.480;2023-02-11T12:17:45;8.50;;;5.87;;
12689;SDS011;6409;56.294;14.480;2023-02-11T12:20:25;5.83;;;5.23;;
12689;SDS011;6409;56.294;14.480;2023-02-11T12:23:01;7.93;;;5.37;;
12689;SDS011;6409;56.294;14.480;2023-02-11T12:25:42;7.20;;;5.40;;
12689;SDS011;6409;56.294;14.480;2023-02-11T12:28:17;5.33;;;5.03;;
12689;SDS011;6409;56.294;14.480;2023-02-11T12:30:57;9.00;;;5.53;;
12689;SDS011;6409;56.294;14.480;2023-02-11T12:33:39;5.83;;;5.50;;
12689;SDS011;6409;56.294;14.480;2023-02-11T12:36:18;6.17;;;5.50;;
12689;SDS011;6409;56.294;14.480;2023-02-11T12:38:55;7.93;;;5.47;;
12689;SDS011;6409;56.294;14.480;2023-02-11T12:41:36;4.83;;;4.60;;
12689;SDS011;6409;56.294;14.480;2023-02-11T12:44:35;5.33;;;4.93;;
12689;SDS011;6409;56.294;14.480;2023-02-11T12:47:19;5.43;;;4.93;;
12689;SDS011;6409;56.294;14.480;2023-02-11T12:50:00;5.40;;;5.10;;
12689;SDS011;6409;56.294;14.480;2023-02-11T12:52:35;5.70;;;5.20;;
12689;SDS011;6409;56.294;14.480;2023-02-11T12:55:15;5.10;;;4.80;;
12689;SDS011;6409;56.294;14.480;2023-02-11T12:57:46;6.80;;;5.57;;
12689;SDS011;6409;56.294;14.480;2023-02-11T13:00:17;4.87;;;4.67;;
12689;SDS011;6409;56.294;14.480;2023-02-11T13:02:48;4.70;;;4.40;;
12689;SDS011;6409;56.294;14.480;2023-02-11T13:05:21;4.90;;;4.50;;
12689;SDS011;6409;56.294;14.480;2023-02-11T13:07:51;4.47;;;4.20;;
12689;SDS011;6409;56.294;14.480;2023-02-11T13:10:23;5.13;;;4.57;;
12689;SDS011;6409;56.294;14.480;2023-02-11T13:12:52;5.00;;;4.70;;
12689;SDS011;6409;56.294;14.480;2023-02-11T13:15:39;5.63;;;5.13;;
12689;SDS011;6409;56.294;14.480;2023-02-11T13:18:23;5.60;;;4.87;;
12689;SDS011;6409;56.294;14.480;2023-02-11T13:21:06;4.73;;;4.50;;
12689;SDS011;6409;56.294;14.480;2023-02-11T13:24:00;4.20;;;4.00;;
12689;SDS011;6409;56.294;14.480;2023-02-11T13:26:35;4.60;;;4.30;;
12689;SDS011;6409;56.294;14.480;2023-02-11T13:29:10;5.63;;;4.67;;
12689;SDS011;6409;56.294;14.480;2023-02-11T13:31:42;5.73;;;4.33;;
12689;SDS011;6409;56.294;14.480;2023-02-11T13:34:25;4.47;;;4.00;;
12689;SDS011;6409;56.294;14.480;2023-02-11T13:36:53;4.20;;;4.00;;
12689;SDS011;6409;56.294;14.480;2023-02-11T13:39:21;4.03;;;3.83;;
12689;SDS011;6409;56.294;14.480;2023-02-11T13:41:48;5.40;;;4.17;;
12689;SDS011;6409;56.294;14.480;2023-02-11T13:44:22;4.80;;;4.50;;
12689;SDS011;6409;56.294;14.480;2023-02-11T13:46:56;4.33;;;4.13;;
12689;SDS011;6409;56.294;14.480;2023-02-11T13:49:27;4.60;;;4.30;;
12689;SDS011;6409;56.294;14.480;2023-02-11T13:51:57;4.20;;;4.00;;
12689;SDS011;6409;56.294;14.480;2023-02-11T13:54:27;4.10;;;4.00;;
12689;SDS011;6409;56.294;14.480;2023-02-11T14:00:01;5.23;;;4.33;;
12689;SDS011;6409;56.294;14.480;2023-02-11T14:02:35;4.37;;;4.10;;
12689;SDS011;6409;56.294;14.480;2023-02-11T14:05:29;4.40;;;4.20;;
12689;SDS011;6409;56.294;14.480;2023-02-11T14:08:18;4.40;;;4.20;;
12689;SDS011;6409;56.294;14.480;2023-02-11T14:11:01;6.13;;;4.30;;
12689;SDS011;6409;56.294;14.480;2023-02-11T14:13:33;6.77;;;4.30;;
12689;SDS011;6409;56.294;14.480;2023-02-11T14:16:04;6.37;;;4.60;;
12689;SDS011;6409;56.294;14.480;2023-02-11T14:18:56;4.70;;;4.27;;
12689;SDS011;6409;56.294;14.480;2023-02-11T14:21:29;4.60;;;4.33;;
12689;SDS011;6409;56.294;14.480;2023-02-11T14:27:06;4.80;;;4.50;;
12689;SDS011;6409;56.294;14.480;2023-02-11T14:29:36;4.73;;;4.33;;
12689;SDS011;6409;56.294;14.480;2023-02-11T14:32:08;4.47;;;4.00;;
12689;SDS011;6409;56.294;14.480;2023-02-11T14:34:45;4.23;;;4.03;;
12689;SDS011;6409;56.294;14.480;2023-02-11T14:37:18;4.60;;;4.20;;
12689;SDS011;6409;56.294;14.480;2023-02-11T14:39:54;4.63;;;4.33;;
12689;SDS011;6409;56.294;14.480;2023-02-11T14:42:25;4.20;;;3.90;;
12689;SDS011;6409;56.294;14.480;2023-02-11T14:44:55;6.70;;;4.30;;
12689;SDS011;6409;56.294;14.480;2023-02-11T14:47:24;4.17;;;3.80;;
12689;SDS011;6409;56.294;14.480;2023-02-11T14:49:56;5.50;;;4.00;;
12689;SDS011;6409;56.294;14.480;2023-02-11T14:52:25;4.13;;;3.93;;
12689;SDS011;6409;56.294;14.480;2023-02-11T14:54:57;4.37;;;3.97;;
12689;SDS011;6409;56.294;14.480;2023-02-11T14:57:31;4.90;;;4.57;;
12689;SDS011;6409;56.294;14.480;2023-02-11T15:00:00;4.20;;;4.00;;
12689;SDS011;6409;56.294;14.480;2023-02-11T15:02:31;4.00;;;3.70;;
12689;SDS011;6409;56.294;14.480;2023-02-11T15:05:13;4.57;;;4.17;;
12689;SDS011;6409;56.294;14.480;2023-02-11T15:07:43;4.03;;;3.73;;
12689;SDS011;6409;56.294;14.480;2023-02-11T15:10:14;3.93;;;3.40;;
12689;SDS011;6409;56.294;14.480;2023-02-11T15:12:46;7.40;;;3.77;;
12689;SDS011;6409;56.294;14.480;2023-02-11T15:15:14;3.97;;;3.70;;
12689;SDS011;6409;56.294;14.480;2023-02-11T15:17:42;3.87;;;3.67;;
12689;SDS011;6409;56.294;14.480;2023-02-11T15:20:14;4.00;;;3.80;;
12689;SDS011;6409;56.294;14.480;2023-02-11T15:22:45;3.70;;;3.60;;
12689;SDS011;6409;56.294;14.480;2023-02-11T15:25:14;3.90;;;3.70;;
12689;SDS011;6409;56.294;14.480;2023-02-11T15:27:44;4.13;;;3.73;;
12689;SDS011;6409;56.294;14.480;2023-02-11T15:30:26;7.30;;;4.13;;